createdAt,value
2023-04-20T00:02:18.158Z,9.03
2023-04-20T00:04:45.710Z,8.59
2023-04-20T00:07:13.904Z,8.74
2023-04-20T00:09:41.182Z,8.87
2023-04-20T00:12:08.729Z,8.88
2023-04-20T00:14:36.198Z,8.88
2023-04-20T00:17:03.508Z,8.91
2023-04-20T00:19:33.340Z,8.89
2023-04-20T00:22:01.026Z,9.03
2023-04-20T00:24:28.304Z,9.02
2023-04-20T00:26:55.756Z,9.35
2023-04-20T00:29:22.910Z,10.37
2023-04-20T00:31:50.166Z,10.79
2023-04-20T00:34:17.596Z,9.86
2023-04-20T00:36:44.809Z,9.98
2023-04-20T00:39:12.109Z,10.65
2023-04-20T00:41:39.584Z,11.35
2023-04-20T00:44:08.061Z,11.43
2023-04-20T00:46:35.740Z,11.35
2023-04-20T00:49:04.870Z,11.40
2023-04-20T00:51:33.182Z,11.35
2023-04-20T00:54:00.769Z,10.73
2023-04-20T00:56:28.242Z,10.06
2023-04-20T00:58:55.421Z,10.62
2023-04-20T01:01:22.596Z,10.30
2023-04-20T01:03:50.213Z,11.10
2023-04-20T01:06:17.480Z,10.86
2023-04-20T01:08:46.343Z,10.97
2023-04-20T01:11:14.308Z,10.69
2023-04-20T01:13:41.574Z,10.69
2023-04-20T01:16:08.790Z,10.53
2023-04-20T01:18:47.386Z,10.37
2023-04-20T01:21:15.289Z,9.84
2023-04-20T01:23:43.036Z,10.38
2023-04-20T01:26:11.411Z,10.53
2023-04-20T01:28:38.708Z,10.12
2023-04-20T01:31:07.052Z,9.59
2023-04-20T01:33:34.489Z,10.27
2023-04-20T01:36:01.691Z,10.17
2023-04-20T01:38:32.193Z,10.50
2023-04-20T01:41:04.665Z,9.33
2023-04-20T01:43:32.640Z,9.46
2023-04-20T01:46:00.220Z,9.04
2023-04-20T01:48:27.523Z,8.11
2023-04-20T01:50:54.912Z,7.72
2023-04-20T01:53:22.161Z,8.45
2023-04-20T01:55:49.651Z,8.34
2023-04-20T01:58:18.258Z,8.44
2023-04-20T02:00:47.252Z,8.51
2023-04-20T02:03:14.912Z,8.12
2023-04-20T02:05:42.186Z,8.24
2023-04-20T02:08:09.392Z,8.16
2023-04-20T02:10:39.716Z,8.25
2023-04-20T02:13:06.871Z,8.15
2023-04-20T02:15:34.144Z,8.07
2023-04-20T02:18:01.614Z,8.05
2023-04-20T02:20:28.931Z,8.22
2023-04-20T02:22:56.094Z,8.44
2023-04-20T02:25:23.578Z,8.13
2023-04-20T02:27:51.114Z,8.41
2023-04-20T02:30:18.315Z,8.06
2023-04-20T02:32:45.779Z,7.92
2023-04-20T02:35:16.355Z,8.13
2023-04-20T02:37:43.794Z,8.05
2023-04-20T02:40:12.947Z,8.58
2023-04-20T02:42:40.584Z,8.07
2023-04-20T02:45:08.686Z,8.23
2023-04-20T02:47:36.353Z,8.02
2023-04-20T02:50:04.072Z,7.80
2023-04-20T02:52:32.535Z,8.08
2023-04-20T02:55:00.577Z,7.93
2023-04-20T02:57:27.778Z,7.75
2023-04-20T02:59:55.843Z,8.05
2023-04-20T03:02:24.458Z,7.89
2023-04-20T03:04:52.386Z,7.85
2023-04-20T03:07:19.818Z,7.60
2023-04-20T03:09:48.612Z,7.62
2023-04-20T03:12:16.323Z,7.68
2023-04-20T03:14:43.966Z,7.45
2023-04-20T03:17:11.990Z,7.35
2023-04-20T03:19:39.325Z,8.04
2023-04-20T03:22:06.869Z,8.65
2023-04-20T03:24:34.630Z,8.01
2023-04-20T03:27:02.135Z,7.53
2023-04-20T03:29:29.890Z,7.41
2023-04-20T03:31:57.440Z,7.20
2023-04-20T03:34:24.869Z,7.15
2023-04-20T03:36:52.038Z,6.96
2023-04-20T03:39:19.585Z,7.06
2023-04-20T03:41:46.896Z,7.38
2023-04-20T03:44:15.153Z,8.33
2023-04-20T03:46:42.851Z,7.38
2023-04-20T03:49:09.993Z,7.63
2023-04-20T03:51:37.565Z,7.24
2023-04-20T03:54:06.634Z,7.95
2023-04-20T03:56:33.917Z,7.48
2023-04-20T03:59:01.178Z,7.92
2023-04-20T04:01:28.976Z,7.55
2023-04-20T04:03:57.647Z,7.16
2023-04-20T04:06:25.053Z,7.13
2023-04-20T04:08:52.218Z,7.65
2023-04-20T04:11:20.992Z,7.46
2023-04-20T04:13:48.142Z,7.39
2023-04-20T04:16:15.680Z,7.12
2023-04-20T04:18:43.944Z,7.09
2023-04-20T04:21:11.134Z,6.93
2023-04-20T04:23:39.169Z,6.91
2023-04-20T04:26:06.961Z,6.74
2023-04-20T04:28:34.705Z,6.93
2023-04-20T04:31:06.148Z,6.98
2023-04-20T04:33:34.745Z,6.78
2023-04-20T04:36:02.587Z,7.00
2023-04-20T04:38:33.379Z,7.36
2023-04-20T04:41:00.929Z,7.09
2023-04-20T04:43:29.525Z,7.37
2023-04-20T04:45:58.581Z,7.13
2023-04-20T04:48:26.647Z,7.11
2023-04-20T04:50:53.834Z,7.91
2023-04-20T04:53:20.992Z,7.53
2023-04-20T04:55:48.949Z,7.26
2023-04-20T04:58:16.161Z,7.58
2023-04-20T05:00:43.675Z,7.45
2023-04-20T05:03:11.391Z,7.34
2023-04-20T05:05:38.684Z,7.82
2023-04-20T05:08:05.921Z,7.77
2023-04-20T05:10:33.547Z,8.63
2023-04-20T05:13:00.740Z,7.70
2023-04-20T05:15:27.932Z,7.87
2023-04-20T05:17:55.645Z,8.35
2023-04-20T05:20:23.247Z,8.04
2023-04-20T05:22:50.444Z,8.13
2023-04-20T05:25:18.631Z,8.44
2023-04-20T05:27:46.416Z,8.54
2023-04-20T05:30:21.507Z,8.32
2023-04-20T05:32:52.299Z,8.31
2023-04-20T05:35:20.481Z,8.92
2023-04-20T05:37:47.999Z,9.01
2023-04-20T05:40:15.969Z,8.39
2023-04-20T05:42:43.287Z,8.30
2023-04-20T05:45:10.864Z,8.80
2023-04-20T05:47:38.318Z,8.67
2023-04-20T05:50:05.866Z,9.03
2023-04-20T05:52:33.038Z,9.05
2023-04-20T05:55:00.611Z,9.38
2023-04-20T05:57:27.826Z,9.46
2023-04-20T05:59:56.129Z,9.38
2023-04-20T06:02:23.791Z,9.65
2023-04-20T06:04:52.114Z,10.04
2023-04-20T06:07:19.401Z,10.60
2023-04-20T06:09:46.589Z,10.97
2023-04-20T06:12:14.121Z,11.30
2023-04-20T06:14:41.379Z,11.81
2023-04-20T06:17:11.117Z,12.30
2023-04-20T06:19:39.007Z,12.85
2023-04-20T06:22:09.277Z,12.84
2023-04-20T06:24:37.184Z,12.72
2023-04-20T06:27:04.868Z,12.81
2023-04-20T06:29:32.064Z,12.37
2023-04-20T06:31:59.289Z,12.08
2023-04-20T06:34:27.038Z,12.44
2023-04-20T06:36:54.292Z,12.27
2023-04-20T06:39:21.929Z,12.77
2023-04-20T06:41:49.380Z,12.79
2023-04-20T06:44:16.648Z,13.05
2023-04-20T06:46:44.267Z,13.87
2023-04-20T06:49:11.746Z,13.84
2023-04-20T06:51:39.318Z,14.03
2023-04-20T06:54:06.689Z,13.81
2023-04-20T06:56:35.578Z,13.75
2023-04-20T06:59:02.997Z,13.41
2023-04-20T07:01:30.887Z,13.63
2023-04-20T07:03:58.690Z,14.30
2023-04-20T07:06:27.883Z,14.25
2023-04-20T07:08:55.328Z,14.20
2023-04-20T07:11:24.036Z,14.12
2023-04-20T07:13:51.510Z,15.07
2023-04-20T07:16:18.739Z,15.00
2023-04-20T07:18:46.505Z,15.04
2023-04-20T07:21:15.345Z,14.55
2023-04-20T07:23:44.859Z,14.80
2023-04-20T07:26:12.812Z,15.26
2023-04-20T07:28:40.109Z,15.70
2023-04-20T07:31:07.442Z,15.32
2023-04-20T07:33:35.963Z,15.60
2023-04-20T07:36:04.679Z,15.87
2023-04-20T07:38:32.685Z,16.81
2023-04-20T07:41:00.221Z,17.69
2023-04-20T07:43:27.399Z,18.63
2023-04-20T07:45:54.535Z,20.22
2023-04-20T07:48:21.972Z,21.80
2023-04-20T07:50:49.131Z,23.05
2023-04-20T07:53:16.292Z,23.80
2023-04-20T07:55:44.559Z,24.73
2023-04-20T07:58:12.514Z,25.67
2023-04-20T08:00:39.717Z,26.24
2023-04-20T08:03:07.513Z,26.34
2023-04-20T08:05:34.960Z,26.02
2023-04-20T08:08:02.140Z,25.95
2023-04-20T08:10:29.600Z,25.50
2023-04-20T08:12:56.913Z,23.20
2023-04-20T08:15:24.347Z,25.74
2023-04-20T08:17:53.060Z,24.44
2023-04-20T08:20:20.354Z,22.99
2023-04-20T08:22:47.685Z,23.00
2023-04-20T08:25:15.172Z,20.56
2023-04-20T08:27:42.314Z,21.00
2023-04-20T08:30:09.955Z,22.71
2023-04-20T08:32:37.827Z,23.62
2023-04-20T08:35:05.509Z,24.29
2023-04-20T08:37:33.886Z,21.74
2023-04-20T08:40:03.146Z,20.32
2023-04-20T08:42:31.277Z,20.83
2023-04-20T08:44:59.568Z,21.64
2023-04-20T08:47:28.095Z,21.83
2023-04-20T08:49:55.733Z,22.41
2023-04-20T08:52:22.848Z,23.54
2023-04-20T08:54:56.468Z,23.78
2023-04-20T08:57:26.903Z,21.92
2023-04-20T08:59:54.531Z,21.84
2023-04-20T09:02:22.854Z,22.15
2023-04-20T09:04:50.397Z,20.08
2023-04-20T09:07:21.091Z,20.05
2023-04-20T09:09:58.130Z,20.00
2023-04-20T09:12:25.933Z,20.92
2023-04-20T09:14:53.362Z,20.84
2023-04-20T09:17:33.499Z,19.53
2023-04-20T09:20:01.146Z,20.09
2023-04-20T09:22:35.703Z,21.18
2023-04-20T09:25:13.106Z,19.51
2023-04-20T09:27:40.286Z,19.30
2023-04-20T09:30:09.329Z,19.27
2023-04-20T09:32:36.609Z,19.71
2023-04-20T09:35:04.021Z,20.57
2023-04-20T09:37:31.687Z,21.23
2023-04-20T09:39:59.748Z,21.28
2023-04-20T09:42:27.582Z,20.83
2023-04-20T09:44:55.003Z,21.12
2023-04-20T09:47:23.383Z,21.68
2023-04-20T09:49:50.824Z,21.07
2023-04-20T09:52:18.929Z,20.77
2023-04-20T09:54:46.179Z,19.48
2023-04-20T09:57:13.987Z,20.62
2023-04-20T09:59:46.617Z,21.14
2023-04-20T10:02:14.191Z,19.45
2023-04-20T10:04:57.661Z,19.59
2023-04-20T10:07:28.970Z,20.69
2023-04-20T10:10:03.781Z,19.95
2023-04-20T10:12:31.009Z,20.05
2023-04-20T10:15:00.793Z,18.64
2023-04-20T10:17:31.648Z,19.72
2023-04-20T10:19:59.267Z,18.86
2023-04-20T10:22:32.851Z,19.64
2023-04-20T10:25:01.354Z,19.64
2023-04-20T10:27:28.872Z,20.00
2023-04-20T10:29:56.061Z,20.21
2023-04-20T10:32:29.465Z,17.98
2023-04-20T10:35:03.663Z,18.70
2023-04-20T10:37:32.406Z,19.31
2023-04-20T10:39:59.734Z,20.10
2023-04-20T10:42:27.035Z,19.99
2023-04-20T10:44:54.619Z,19.51
2023-04-20T10:47:29.706Z,20.15
2023-04-20T10:50:07.973Z,19.37
2023-04-20T10:52:36.257Z,20.28
2023-04-20T10:55:04.662Z,20.66
2023-04-20T10:57:32.725Z,20.15
2023-04-20T11:00:00.307Z,20.95
2023-04-20T11:02:28.341Z,20.17
2023-04-20T11:05:01.022Z,20.19
2023-04-20T11:07:29.098Z,19.71
2023-04-20T11:09:56.768Z,19.14
2023-04-20T11:12:24.119Z,19.79
2023-04-20T11:15:00.337Z,19.25
2023-04-20T11:17:34.257Z,20.47
2023-04-20T11:20:19.915Z,20.85
2023-04-20T11:22:56.721Z,20.55
2023-04-20T11:25:24.326Z,20.38
2023-04-20T11:27:51.482Z,20.28
2023-04-20T11:30:19.547Z,20.77
2023-04-20T11:32:53.819Z,20.70
2023-04-20T11:35:21.153Z,21.05
2023-04-20T11:37:51.798Z,21.77
2023-04-20T11:40:19.213Z,21.70
2023-04-20T11:42:46.519Z,20.57
2023-04-20T11:45:14.001Z,20.93
2023-04-20T11:47:41.505Z,21.36
2023-04-20T11:50:10.347Z,21.66
2023-04-20T11:52:37.945Z,22.14
2023-04-20T11:55:06.055Z,22.17
2023-04-20T11:57:34.578Z,21.82
2023-04-20T12:00:02.127Z,20.96
2023-04-20T12:02:29.417Z,21.10
2023-04-20T12:04:57.388Z,20.03
2023-04-20T12:07:24.815Z,20.22
2023-04-20T12:09:52.001Z,20.37
2023-04-20T12:12:19.888Z,20.14
2023-04-20T12:14:47.073Z,21.25
2023-04-20T12:17:14.267Z,19.45
2023-04-20T12:19:41.775Z,19.04
2023-04-20T12:22:08.887Z,20.05
2023-04-20T12:24:36.044Z,21.04
2023-04-20T12:27:04.458Z,20.61
2023-04-20T12:29:33.197Z,20.37
2023-04-20T12:32:00.495Z,20.25
2023-04-20T12:34:28.027Z,20.15
2023-04-20T12:36:55.305Z,20.54
2023-04-20T12:39:22.465Z,20.82
2023-04-20T12:41:49.915Z,20.83
2023-04-20T12:44:17.651Z,20.39
2023-04-20T12:46:45.547Z,20.80
2023-04-20T12:49:13.022Z,20.75
2023-04-20T12:51:41.819Z,19.97
2023-04-20T12:54:09.009Z,19.75
2023-04-20T12:56:36.515Z,20.06
2023-04-20T12:59:03.912Z,19.78
2023-04-20T13:01:31.473Z,20.60
2023-04-20T13:03:59.090Z,19.42
2023-04-20T13:06:26.660Z,19.01
2023-04-20T13:08:53.945Z,18.76
2023-04-20T13:11:22.064Z,18.80
2023-04-20T13:13:49.306Z,18.78
2023-04-20T13:16:16.580Z,18.80
2023-04-20T13:18:44.234Z,18.90
2023-04-20T13:21:11.402Z,19.80
2023-04-20T13:23:42.233Z,20.54
2023-04-20T13:26:09.720Z,20.93
2023-04-20T13:28:37.776Z,20.88
2023-04-20T13:31:04.989Z,20.76
2023-04-20T13:33:32.804Z,21.27
2023-04-20T13:35:59.985Z,21.14
2023-04-20T13:38:27.124Z,19.91
2023-04-20T13:40:54.596Z,20.56
2023-04-20T13:43:21.910Z,20.12
2023-04-20T13:45:49.177Z,20.62
2023-04-20T13:48:16.777Z,20.88
2023-04-20T13:50:44.002Z,20.35
2023-04-20T13:53:11.153Z,20.91
2023-04-20T13:55:38.593Z,21.09
2023-04-20T13:58:05.757Z,19.89
2023-04-20T14:00:34.651Z,20.10
2023-04-20T14:03:02.777Z,20.05
2023-04-20T14:05:30.331Z,20.81
2023-04-20T14:08:01.470Z,21.49
2023-04-20T14:10:29.116Z,20.72
2023-04-20T14:12:56.614Z,20.81
2023-04-20T14:15:23.823Z,20.26
2023-04-20T14:17:52.784Z,20.36
2023-04-20T14:20:20.210Z,21.57
2023-04-20T14:22:47.396Z,21.06
2023-04-20T14:25:14.890Z,21.00
2023-04-20T14:27:42.133Z,21.91
2023-04-20T14:30:09.664Z,21.90
2023-04-20T14:32:38.296Z,22.54
2023-04-20T14:35:06.170Z,21.75
2023-04-20T14:37:33.733Z,22.26
2023-04-20T14:40:01.327Z,22.04
2023-04-20T14:42:28.695Z,21.89
2023-04-20T14:44:56.067Z,21.79
2023-04-20T14:47:23.555Z,22.15
2023-04-20T14:49:50.831Z,22.04
2023-04-20T14:52:18.010Z,21.94
2023-04-20T14:54:45.442Z,20.70
2023-04-20T14:57:12.653Z,20.30
2023-04-20T14:59:41.451Z,21.08
2023-04-20T15:02:09.050Z,21.63
2023-04-20T15:04:36.764Z,21.43
2023-04-20T15:07:04.210Z,20.93
2023-04-20T15:09:32.974Z,21.51
2023-04-20T15:12:00.254Z,21.43
2023-04-20T15:14:27.777Z,21.33
2023-04-20T15:16:55.368Z,21.16
2023-04-20T15:19:25.859Z,21.47
2023-04-20T15:21:53.237Z,21.21
2023-04-20T15:24:21.045Z,20.32
2023-04-20T15:26:48.338Z,20.44
2023-04-20T15:29:15.817Z,20.49
2023-04-20T15:31:45.545Z,21.76
2023-04-20T15:34:15.264Z,20.88
2023-04-20T15:36:43.661Z,20.66
2023-04-20T15:39:11.079Z,20.70
2023-04-20T15:41:38.244Z,20.80
2023-04-20T15:44:05.862Z,20.84
2023-04-20T15:46:33.310Z,21.09
2023-04-20T15:49:00.596Z,22.15
2023-04-20T15:51:28.188Z,20.60
2023-04-20T15:53:55.405Z,20.97
2023-04-20T15:56:23.343Z,22.21
2023-04-20T15:58:51.440Z,21.76
2023-04-20T16:01:19.683Z,21.14
2023-04-20T16:03:47.731Z,21.94
2023-04-20T16:06:15.228Z,21.37
2023-04-20T16:08:42.455Z,20.97
2023-04-20T16:11:10.021Z,21.76
2023-04-20T16:13:37.239Z,22.10
2023-04-20T16:16:04.493Z,22.01
2023-04-20T16:18:35.108Z,22.18
2023-04-20T16:21:02.340Z,21.84
2023-04-20T16:23:29.691Z,22.02
2023-04-20T16:25:57.152Z,22.24
2023-04-20T16:28:24.315Z,22.32
2023-04-20T16:30:51.651Z,22.16
2023-04-20T16:33:19.722Z,22.35
2023-04-20T16:35:46.921Z,20.95
2023-04-20T16:38:14.221Z,21.24
2023-04-20T16:40:42.700Z,21.00
2023-04-20T16:43:09.911Z,21.28
2023-04-20T16:45:39.002Z,21.11
2023-04-20T16:48:08.167Z,20.67
2023-04-20T16:50:38.066Z,20.79
2023-04-20T16:53:09.177Z,20.75
2023-04-20T16:55:54.914Z,20.11
2023-04-20T16:58:22.554Z,20.25
2023-04-20T17:00:49.886Z,20.48
2023-04-20T17:03:17.533Z,20.48
2023-04-20T17:05:46.580Z,20.37
2023-04-20T17:08:13.764Z,20.10
2023-04-20T17:10:40.922Z,19.89
2023-04-20T17:13:08.485Z,19.89
2023-04-20T17:15:35.760Z,19.81
2023-04-20T17:18:03.692Z,19.95
2023-04-20T17:20:31.174Z,20.20
2023-04-20T17:22:58.342Z,19.69
2023-04-20T17:25:25.572Z,19.81
2023-04-20T17:27:53.037Z,19.88
2023-04-20T17:30:21.174Z,19.87
2023-04-20T17:32:48.356Z,19.92
2023-04-20T17:35:15.853Z,19.69
2023-04-20T17:37:43.412Z,19.82
2023-04-20T17:40:10.842Z,19.77
2023-04-20T17:42:38.668Z,19.60
2023-04-20T17:45:06.228Z,19.73
2023-04-20T17:47:35.317Z,19.76
2023-04-20T17:50:04.589Z,19.42
2023-04-20T17:52:31.990Z,19.41
2023-04-20T17:55:05.446Z,19.57
2023-04-20T17:57:33.028Z,19.26
2023-04-20T18:00:00.615Z,19.13
2023-04-20T18:02:28.053Z,18.99
2023-04-20T18:04:59.526Z,18.93
2023-04-20T18:07:27.817Z,18.79
2023-04-20T18:09:55.096Z,18.94
2023-04-20T18:12:22.584Z,18.88
2023-04-20T18:14:50.509Z,19.16
2023-04-20T18:17:18.484Z,19.21
2023-04-20T18:19:46.620Z,19.24
2023-04-20T18:22:14.701Z,19.20
2023-04-20T18:24:43.703Z,19.24
2023-04-20T18:27:12.030Z,19.24
2023-04-20T18:29:39.831Z,19.39
2023-04-20T18:32:07.308Z,19.24
2023-04-20T18:34:36.857Z,19.25
2023-04-20T18:37:04.648Z,19.15
2023-04-20T18:39:32.711Z,19.13
2023-04-20T18:42:01.394Z,19.02
2023-04-20T18:44:29.861Z,19.02
2023-04-20T18:46:58.673Z,18.97
2023-04-20T18:49:27.177Z,19.02
2023-04-20T18:51:56.256Z,18.94
2023-04-20T18:54:26.132Z,19.13
2023-04-20T18:56:54.932Z,18.92
2023-04-20T18:59:22.583Z,18.73
2023-04-20T19:01:53.535Z,18.66
2023-04-20T19:04:23.371Z,18.74
2023-04-20T19:06:52.359Z,18.84
2023-04-20T19:09:22.961Z,18.66
2023-04-20T19:11:51.600Z,18.51
2023-04-20T19:14:19.438Z,18.49
2023-04-20T19:16:47.816Z,18.59
2023-04-20T19:19:16.916Z,18.78
2023-04-20T19:21:44.691Z,18.51
2023-04-20T19:24:12.712Z,18.61
2023-04-20T19:26:41.069Z,18.58
2023-04-20T19:29:14.963Z,18.57
2023-04-20T19:31:43.841Z,18.52
2023-04-20T19:34:13.841Z,18.39
2023-04-20T19:36:42.343Z,18.41
2023-04-20T19:39:10.474Z,18.49
2023-04-20T19:41:38.301Z,18.46
2023-04-20T19:44:07.057Z,18.36
2023-04-20T19:46:35.390Z,18.47
2023-04-20T19:49:03.782Z,18.42
2023-04-20T19:51:33.322Z,18.31
2023-04-20T19:54:04.095Z,18.26
2023-04-20T19:56:33.496Z,18.18
2023-04-20T19:59:01.487Z,18.70
2023-04-20T20:01:30.456Z,18.57
2023-04-20T20:04:01.928Z,18.50
2023-04-20T20:06:29.298Z,18.49
2023-04-20T20:08:56.870Z,18.76
2023-04-20T20:11:25.411Z,18.55
2023-04-20T20:13:52.948Z,18.46
2023-04-20T20:16:20.793Z,18.06
2023-04-20T20:18:48.708Z,17.76
2023-04-20T20:21:16.436Z,17.90
2023-04-20T20:23:44.388Z,17.74
2023-04-20T20:26:12.316Z,17.66
2023-04-20T20:28:41.565Z,17.62
2023-04-20T20:31:10.789Z,17.56
2023-04-20T20:33:39.704Z,17.56
2023-04-20T20:36:08.750Z,17.23
2023-04-20T20:38:35.955Z,17.36
2023-04-20T20:41:04.053Z,17.27
2023-04-20T20:43:31.693Z,17.12
2023-04-20T20:45:58.891Z,17.12
2023-04-20T20:48:26.393Z,16.80
2023-04-20T20:50:53.549Z,16.68
2023-04-20T20:53:20.917Z,15.65
2023-04-20T20:55:48.320Z,15.53
2023-04-20T20:58:15.477Z,16.20
2023-04-20T21:00:42.642Z,16.35
2023-04-20T21:03:10.292Z,16.38
2023-04-20T21:05:37.540Z,16.13
2023-04-20T21:08:04.699Z,15.99
2023-04-20T21:10:32.158Z,16.23
2023-04-20T21:12:59.354Z,16.49
2023-04-20T21:15:26.567Z,15.90
2023-04-20T21:17:54.042Z,16.29
2023-04-20T21:20:21.355Z,16.01
2023-04-20T21:22:48.530Z,15.98
2023-04-20T21:25:15.998Z,15.44
2023-04-20T21:27:43.208Z,15.80
2023-04-20T21:30:10.966Z,15.57
2023-04-20T21:32:38.502Z,16.09
2023-04-20T21:35:06.168Z,15.89
2023-04-20T21:37:33.313Z,16.20
2023-04-20T21:40:00.778Z,14.75
2023-04-20T21:42:27.933Z,14.86
2023-04-20T21:44:55.071Z,14.48
2023-04-20T21:47:22.698Z,14.22
2023-04-20T21:49:49.885Z,13.62
2023-04-20T21:52:17.036Z,13.54
2023-04-20T21:54:44.487Z,13.33
2023-04-20T21:57:11.711Z,13.34
2023-04-20T21:59:38.912Z,13.75
2023-04-20T22:02:06.381Z,13.15
2023-04-20T22:04:33.869Z,13.02
2023-04-20T22:07:01.153Z,12.96
2023-04-20T22:09:28.398Z,13.99
2023-04-20T22:11:57.660Z,13.74
2023-04-20T22:14:24.927Z,13.83
2023-04-20T22:16:52.441Z,14.23
2023-04-20T22:19:21.152Z,14.55
2023-04-20T22:21:48.365Z,14.47
2023-04-20T22:24:15.658Z,14.41
2023-04-20T22:26:43.249Z,14.77
2023-04-20T22:29:10.540Z,14.73
2023-04-20T22:31:38.115Z,14.80
2023-04-20T22:34:05.624Z,14.89
2023-04-20T22:36:32.969Z,14.88
2023-04-20T22:39:00.504Z,14.26
2023-04-20T22:41:28.060Z,14.22
2023-04-20T22:43:55.240Z,14.39
2023-04-20T22:46:22.490Z,14.14
2023-04-20T22:48:50.005Z,13.86
2023-04-20T22:51:17.370Z,14.13
2023-04-20T22:53:44.598Z,14.17
2023-04-20T22:56:12.019Z,14.09
2023-04-20T22:58:39.200Z,14.62
2023-04-20T23:01:06.464Z,14.11
2023-04-20T23:03:34.070Z,13.00
2023-04-20T23:06:01.417Z,12.72
2023-04-20T23:08:28.642Z,12.29
2023-04-20T23:10:56.146Z,11.79
2023-04-20T23:13:26.504Z,11.58
2023-04-20T23:15:54.017Z,11.89
2023-04-20T23:18:21.608Z,11.34
2023-04-20T23:20:48.806Z,11.78
2023-04-20T23:23:15.938Z,11.08
2023-04-20T23:25:43.416Z,11.29
2023-04-20T23:28:10.574Z,10.91
2023-04-20T23:30:37.810Z,10.71
2023-04-20T23:33:05.954Z,10.67
2023-04-20T23:35:33.559Z,10.37
2023-04-20T23:38:01.032Z,10.34
2023-04-20T23:40:28.507Z,10.38
2023-04-20T23:42:55.755Z,10.27
2023-04-20T23:45:23.206Z,11.05
2023-04-20T23:47:50.892Z,10.69
2023-04-20T23:50:18.062Z,10.35
2023-04-20T23:52:45.372Z,10.42
2023-04-20T23:55:13.646Z,10.45
2023-04-20T23:57:40.816Z,10.13
